x

West Washington - 300nm West Of Aberdeen, Wa (46005) Wave Buoy

10:50pm - Wed 28th Sep 2016 All times are UTC.

  • Sig Wave height 3.6ft
  • Swell Direction
  • Peak Period 7s
  • Average Period 6s
  • Wind
    11mph, 16mph gusts
  • Sea Temp 63°f
  • Air Temp 62°f
  • Sea Pressure 1023.2mb

More Historic Weather Station data

Upgrade to MSW Pro to gain access to the past 30 days of data for over 8000 Wavebouys and Weather Stations around the globe.

Join Pro

Comparision Forecast

View Surf forecast
   
Wed 09/28 10:50pm 3.5ft 7s 6s 11 16 mph 1023.2mb 63f 62f
9:50pm 4.5ft 7s 6s 11 13 mph 1023.9mb 63f 62f
8:50pm 4ft 8s 6s 9 11 mph 1024.3mb 63f 61f
7:50pm 4ft 8s 6s 7 9 mph 1024.6mb 63f 61f
6:50pm 4.5ft 7s 6s 4 7 mph 1025mb 63f 60f
5:50pm 4ft 8s 6s 4 7 mph 1025.2mb 63f 61f
4:50pm 4.5ft 7s 6s 4 7 mph 1025.3mb 63f 60f
3:50pm 4ft 8s 6s 9 11 mph 1025.2mb 63f 60f
2:50pm 4.5ft 8s 6s 9 13 mph 1025.5mb 63f 60f
1:50pm 4.5ft 8s 6s 11 16 mph 1025.7mb 63f 60f
12:50pm 4.5ft 15s 6s 11 13 mph 1025.9mb 63f 60f
11:50am 4.5ft 7s 6s 13 16 mph 1025.8mb 63f 60f
10:50am 4.5ft 8s 6s 13 18 mph 1026mb 63f 60f
9:50am 4.5ft 8s 6s 16 18 mph 1026.3mb 63f 60f
8:50am 4.5ft 8s 6s 11 13 mph 1026.5mb 63f 60f
7:50am 5ft 7s 6s 13 16 mph 1026.9mb 63f 60f
6:50am 5ft 9s 6s 13 16 mph 1026.9mb 63f 60f
5:50am 5ft 7s 6s 13 16 mph 1027.3mb 63f 60f
4:50am 5ft 8s 6s 13 16 mph 1027.3mb 63f 61f
3:50am 5ft 8s 6s 13 18 mph 1027.3mb 63f 61f
2:50am 5ft 8s 6s 16 18 mph 1027.1mb 63f 61f
1:50am 5ft 8s 6s 13 18 mph 1027.3mb 63f 61f
12:50am 5ft 9s 6s 13 16 mph 1027.7mb 63f 62f
Tue 09/27 11:50pm 5ft 15s 6s 13 18 mph 1027.8mb 63f 62f
10:50pm 5ft 7s 6s 13 18 mph 1027.9mb 63f 61f
9:50pm 5ft 15s 6s 11 16 mph 1028.5mb 63f 62f
8:50pm 5ft 16s 6s 13 16 mph 1028.7mb 63f 61f
7:50pm 5ft 8s 6s 13 18 mph 1028.7mb 63f 61f
6:50pm 6ft 9s 6s 13 18 mph 1029mb 63f 61f
5:50pm 6ft 10s 6s 16 20 mph 1028.7mb 63f 61f
4:50pm 6ft 8s 6s 16 18 mph 1028.8mb 63f 61f
3:50pm 6ft 9s 6s 13 18 mph 1028.7mb 63f 61f
2:50pm 7ft 10s 6s 13 18 mph 1028.5mb 63f 61f
1:50pm 7ft 9s 6s 16 18 mph 1028.2mb 63f 61f
12:50pm 7ft 8s 7s 13 18 mph 1028mb 63f 61f
11:50am 8ft 8s 7s 13 18 mph 1027.9mb 63f 61f
10:50am 7ft 10s 6s 13 18 mph 1027.7mb 63f 61f
9:50am 7.5ft 7s 6s 18 22 mph 1027.4mb 63f 61f
8:50am 8ft 10s 6s 18 20 mph 1027.1mb 63f 61f
7:50am 7.5ft 10s 6s 18 22 mph 1026.8mb 63f 62f
6:50am 8.5ft 10s 6s 18 22 mph 1026.4mb 63f 62f
5:50am 7.5ft 6s 6s 20 25 mph 1026.1mb 63f 62f
4:50am 8ft 11s 6s 20 25 mph 1025.5mb 63f 62f
3:50am 8ft 10s 6s 20 25 mph 1024.6mb 63f 62f
2:50am 7.5ft 10s 6s 22 27 mph 1023.7mb 63f 62f
1:50am 8ft 10s 6s 25 29 mph 1023.1mb 63f 62f
12:50am 8ft 11s 6s 25 29 mph 1022.5mb 63f 63f
Mon 09/26 11:50pm 7ft 9s 7s 22 27 mph 1022.2mb 63f 62f
10:50pm 7.5ft 10s 7s 20 25 mph 1021.6mb 63f 62f
9:50pm 7.5ft 11s 7s 20 25 mph 1020.9mb 63f 63f
8:50pm 7ft 10s 7s 13 18 mph 1020.4mb 63f 64f
7:50pm 8ft 11s 7s 13 16 mph 1020.5mb 63f 64f
6:50pm 8ft 10s 7s 9 11 mph 1020.1mb 63f 63f
5:50pm 9ft 9s 8s 16 18 mph 1019.5mb 63f 64f
4:50pm 9ft 10s 8s 16 18 mph 1019.3mb 63f 64f
3:50pm 9ft 10s 8s 16 18 mph 1019.4mb 63f 64f
2:50pm 7.5ft 11s 7s 13 16 mph 1019.4mb 63f 64f
1:50pm 8.5ft 10s 8s 13 16 mph 1019.5mb 63f 64f
12:50pm 8.5ft 11s 7s 13 18 mph 1019.8mb 63f 64f
11:50am 8ft 10s 7s 16 18 mph 1019.7mb 63f 64f
10:50am 8ft 11s 8s 16 18 mph 1020.3mb 63f 64f
9:50am 6ft 16s 7s 13 16 mph 1020.9mb 63f 64f
8:50am 6ft 10s 7s 13 16 mph 1021.4mb 63f 64f
7:50am 7ft 10s 7s 13 16 mph 1022.1mb 63f 64f
6:50am 7ft 9s 8s 13 18 mph 1022.2mb 63f 64f
5:50am 7ft 11s 7s 13 18 mph 1022.5mb 63f 64f
4:50am 8ft 10s 8s 13 18 mph 1022.9mb 63f 64f
3:50am 7ft 16s 7s 16 18 mph 1023.1mb 63f 64f
2:50am 7.5ft 10s 7s 16 18 mph 1023.1mb 63f 64f
1:50am 7ft 10s 7s 13 18 mph 1023.5mb 63f 64f
12:50am 7.5ft 16s 8s 13 18 mph 1023.9mb 64f 64f
Sun 09/25 11:50pm 7ft 9s 7s 16 18 mph 1024.3mb 64f 64f
10:50pm 7ft 9s 7s 16 20 mph 1024.8mb 64f 64f
9:50pm 7ft 16s 7s 16 18 mph 1025.4mb 64f 64f
8:50pm 7ft 8s 7s 16 18 mph 1025.8mb 64f 64f
7:50pm 6.5ft 10s 8s 13 16 mph 1026.2mb 64f 64f
6:50pm 7ft 10s 8s 13 16 mph 1026.3mb 63f 64f
5:50pm 6.5ft 10s 7s 11 13 mph 1026.4mb 63f 64f
4:50pm 7ft 10s 7s 9
mph
1026.4mb 63f 64f
3:50pm 6ft 17s 7s 9 11 mph 1026mb 63f 64f
2:50pm 7ft 10s 7s 9 11 mph 1025.7mb 63f 64f
1:50pm 7ft 11s 7s 9 11 mph 1025.5mb 63f 64f
12:50pm 8ft 9s 7s 13 16 mph 1025.1mb 63f 64f
11:50am 8ft 10s 7s 18 22 mph 1024.8mb 63f 64f
10:50am 7.5ft 10s 7s 16 20 mph 1024.8mb 63f 64f
9:50am 7ft 10s 7s 16 20 mph 1025mb 63f 64f
8:50am 8ft 9s 7s 16 18 mph 1025.1mb 63f 64f
7:50am 7.5ft 9s 7s 16 18 mph 1025mb 63f 65f
6:50am 7.5ft 9s 7s 13 18 mph 1024.8mb 63f 65f
5:50am 8ft 17s 7s 16 20 mph 1024.4mb 63f 65f
4:50am 7.5ft 10s 7s 16 18 mph 1023.9mb 63f 65f
3:50am 8ft 17s 7s 18 20 mph 1023mb 63f 65f
2:50am 9ft 9s 7s 18 20 mph 1022.3mb 63f 65f
1:50am 8ft 10s 7s 18 20 mph 1021.9mb 63f 65f
12:50am 8.5ft 10s 7s 20 25 mph 1021.5mb 63f 65f